createdAt,value
2022-12-05T00:01:34.649Z,21.90
2022-12-05T00:04:04.174Z,21.90
2022-12-05T00:06:32.882Z,20.40
2022-12-05T00:09:00.554Z,23.10
2022-12-05T00:11:30.793Z,19.40
2022-12-05T00:14:00.018Z,22.00
2022-12-05T00:16:28.828Z,23.70
2022-12-05T00:18:58.233Z,25.20
2022-12-05T00:21:27.198Z,22.90
2022-12-05T00:23:55.488Z,21.80
2022-12-05T00:26:22.427Z,15.50
2022-12-05T00:28:49.757Z,22.90
2022-12-05T00:31:19.438Z,26.30
2022-12-05T00:33:47.062Z,22.50
2022-12-05T00:36:22.387Z,21.40
2022-12-05T00:38:49.785Z,19.50
2022-12-05T00:41:24.908Z,22.00
2022-12-05T00:43:52.235Z,20.20
2022-12-05T00:46:24.669Z,20.40
2022-12-05T00:48:56.348Z,22.80
2022-12-05T00:51:30.232Z,19.60
2022-12-05T00:54:00.058Z,22.00
2022-12-05T00:56:28.449Z,20.30
2022-12-05T00:58:57.233Z,20.30
2022-12-05T01:01:27.095Z,20.60
2022-12-05T01:03:56.797Z,22.40
2022-12-05T01:06:24.776Z,21.20
2022-12-05T01:08:55.393Z,16.40
2022-12-05T01:11:23.522Z,19.40
2022-12-05T01:13:50.449Z,21.90
2022-12-05T01:16:19.491Z,22.30
2022-12-05T01:18:46.739Z,19.60
2022-12-05T01:21:13.471Z,17.90
2022-12-05T01:23:40.802Z,21.50
2022-12-05T01:26:10.436Z,16.00
2022-12-05T01:28:37.832Z,24.90
2022-12-05T01:31:08.643Z,19.50
2022-12-05T01:33:35.783Z,19.00
2022-12-05T01:36:03.719Z,17.10
2022-12-05T01:38:30.515Z,16.70
2022-12-05T01:41:05.373Z,18.10
2022-12-05T01:43:32.351Z,17.60
2022-12-05T01:45:59.093Z,20.80
2022-12-05T01:48:32.119Z,20.50
2022-12-05T01:51:00.529Z,20.30
2022-12-05T01:53:29.068Z,16.90
2022-12-05T01:55:56.763Z,19.90
2022-12-05T01:58:28.233Z,15.70
2022-12-05T02:00:54.953Z,18.10
2022-12-05T02:03:21.813Z,20.70
2022-12-05T02:05:53.304Z,16.70
2022-12-05T02:08:21.045Z,20.60
2022-12-05T02:10:51.544Z,26.30
2022-12-05T02:13:35.662Z,16.30
2022-12-05T02:16:35.728Z,12.00
2022-12-05T02:19:36.833Z,17.70
2022-12-05T02:22:22.185Z,19.10
2022-12-05T02:25:00.970Z,15.40
2022-12-05T02:27:36.397Z,18.90
2022-12-05T02:30:12.826Z,21.10
2022-12-05T02:32:58.278Z,21.30
2022-12-05T02:35:50.007Z,21.60
2022-12-05T02:38:33.149Z,22.00
2022-12-05T02:41:12.266Z,17.60
2022-12-05T02:43:48.565Z,21.50
2022-12-05T02:46:22.013Z,19.30
2022-12-05T02:48:53.847Z,17.50
2022-12-05T02:51:23.456Z,20.70
2022-12-05T02:53:51.632Z,21.40
2022-12-05T02:56:19.125Z,19.40
2022-12-05T02:58:53.760Z,16.30
2022-12-05T03:01:29.734Z,20.30
2022-12-05T03:03:58.994Z,17.50
2022-12-05T03:06:40.797Z,22.80
2022-12-05T03:09:23.360Z,22.80
2022-12-05T03:11:55.512Z,15.60
2022-12-05T03:14:26.202Z,19.50
2022-12-05T03:17:01.705Z,20.40
2022-12-05T03:20:02.326Z,18.50
2022-12-05T03:22:46.123Z,24.40
2022-12-05T03:25:13.664Z,18.70
2022-12-05T03:27:53.339Z,16.60
2022-12-05T03:30:22.590Z,24.30
2022-12-05T03:33:19.822Z,20.80
2022-12-05T03:36:00.842Z,17.40
2022-12-05T03:38:39.357Z,15.90
2022-12-05T03:41:17.922Z,20.30
2022-12-05T03:43:56.763Z,11.90
2022-12-05T03:46:52.181Z,19.30
2022-12-05T03:49:32.074Z,16.80
2022-12-05T03:52:17.745Z,15.70
2022-12-05T03:55:14.539Z,18.50
2022-12-05T03:57:57.697Z,23.20
2022-12-05T04:00:24.574Z,14.00
2022-12-05T04:02:57.624Z,17.00
2022-12-05T04:05:28.181Z,15.70
2022-12-05T04:08:00.875Z,19.30
2022-12-05T04:10:32.722Z,17.10
2022-12-05T04:13:17.153Z,17.80
2022-12-05T04:16:16.120Z,19.50
2022-12-05T04:18:52.403Z,19.30
2022-12-05T04:24:32.274Z,17.80
2022-12-05T04:27:24.467Z,20.00
2022-12-05T04:30:08.092Z,20.70
2022-12-05T04:32:45.312Z,19.70
2022-12-05T04:35:22.575Z,16.10
2022-12-05T04:37:52.252Z,21.30
2022-12-05T04:40:30.627Z,22.30
2022-12-05T04:42:59.816Z,25.50
2022-12-05T04:45:27.190Z,19.60
2022-12-05T04:48:02.324Z,21.10
2022-12-05T04:50:32.001Z,21.30
2022-12-05T04:53:00.970Z,18.40
2022-12-05T04:55:31.234Z,17.90
2022-12-05T04:58:14.567Z,18.40
2022-12-05T05:00:49.685Z,14.80
2022-12-05T05:03:20.642Z,17.60
2022-12-05T05:05:50.378Z,16.40
2022-12-05T05:08:22.146Z,16.70
2022-12-05T05:11:00.534Z,15.10
2022-12-05T05:13:27.320Z,16.70
2022-12-05T05:15:54.037Z,18.50
2022-12-05T05:18:20.697Z,17.70
2022-12-05T05:20:47.422Z,17.00
2022-12-05T05:23:16.184Z,15.80
2022-12-05T05:25:42.922Z,19.70
2022-12-05T05:28:09.589Z,16.40
2022-12-05T05:30:36.414Z,18.60
2022-12-05T05:33:03.260Z,20.50
2022-12-05T05:35:30.021Z,17.10
2022-12-05T05:37:57.154Z,14.50
2022-12-05T05:40:23.928Z,14.20
2022-12-05T05:42:50.737Z,14.40
2022-12-05T05:45:17.817Z,17.80
2022-12-05T05:47:44.732Z,18.60
2022-12-05T05:50:16.333Z,19.10
2022-12-05T05:52:46.272Z,21.70
2022-12-05T05:55:13.062Z,18.10
2022-12-05T05:57:39.951Z,16.40
2022-12-05T06:00:08.353Z,19.90
2022-12-05T06:02:36.039Z,16.20
2022-12-05T06:05:04.010Z,19.20
2022-12-05T06:07:31.002Z,17.40
2022-12-05T06:10:00.163Z,20.20
2022-12-05T06:12:27.962Z,17.80
2022-12-05T06:14:54.657Z,18.00
2022-12-05T06:17:22.041Z,19.50
2022-12-05T06:19:48.710Z,17.50
2022-12-05T06:22:15.548Z,20.50
2022-12-05T06:24:42.311Z,17.70
2022-12-05T06:27:09.002Z,19.40
2022-12-05T06:29:35.891Z,19.20
2022-12-05T06:32:03.105Z,18.60
2022-12-05T06:34:31.896Z,18.60
2022-12-05T06:36:59.598Z,17.10
2022-12-05T06:39:26.994Z,16.30
2022-12-05T06:41:53.954Z,17.80
2022-12-05T06:44:21.461Z,18.00
2022-12-05T06:46:48.518Z,18.50
2022-12-05T06:49:15.318Z,16.60
2022-12-05T06:51:41.940Z,19.60
2022-12-05T06:54:08.580Z,21.20
2022-12-05T06:56:35.199Z,20.00
2022-12-05T06:59:01.884Z,21.00
2022-12-05T07:01:42.050Z,22.60
2022-12-05T07:04:19.566Z,19.50
2022-12-05T07:06:50.836Z,19.50
2022-12-05T07:09:21.184Z,23.50
2022-12-05T07:11:51.452Z,23.50
2022-12-05T07:14:45.409Z,24.00
2022-12-05T07:17:05.056Z,22.40
2022-12-05T07:19:31.755Z,19.50
2022-12-05T07:21:58.537Z,19.00
2022-12-05T07:24:26.437Z,19.30
2022-12-05T07:26:53.201Z,20.00
2022-12-05T07:29:19.893Z,17.80
2022-12-05T07:31:46.712Z,17.60
2022-12-05T07:34:13.552Z,16.70
2022-12-05T07:36:40.301Z,20.80
2022-12-05T07:39:06.978Z,20.90
2022-12-05T07:41:35.189Z,22.00
2022-12-05T07:44:06.011Z,22.40
2022-12-05T07:46:32.786Z,22.40
2022-12-05T07:48:59.461Z,22.20
2022-12-05T07:51:26.120Z,20.00
2022-12-05T07:53:53.110Z,22.50
2022-12-05T07:56:21.181Z,22.70
2022-12-05T07:58:49.312Z,21.30
2022-12-05T08:01:18.658Z,20.20
2022-12-05T08:03:46.302Z,21.60
2022-12-05T08:06:17.597Z,19.50
2022-12-05T08:08:44.902Z,23.60
2022-12-05T08:11:20.130Z,22.40
2022-12-05T08:13:47.293Z,27.80
2022-12-05T08:16:16.618Z,23.40
2022-12-05T08:18:43.959Z,21.30
2022-12-05T08:21:15.948Z,23.00
2022-12-05T08:23:43.948Z,22.60
2022-12-05T08:26:13.692Z,21.70
2022-12-05T08:28:41.567Z,24.60
2022-12-05T08:31:13.908Z,23.60
2022-12-05T08:33:41.061Z,26.50
2022-12-05T08:36:11.461Z,24.30
2022-12-05T08:38:38.993Z,21.30
2022-12-05T08:41:12.286Z,19.60
2022-12-05T08:43:39.060Z,21.80
2022-12-05T08:46:06.237Z,22.10
2022-12-05T08:48:34.118Z,22.00
2022-12-05T08:51:06.156Z,24.40
2022-12-05T08:53:33.196Z,25.10
2022-12-05T08:56:04.093Z,22.50
2022-12-05T08:58:32.226Z,22.20
2022-12-05T09:01:14.333Z,23.70
2022-12-05T09:03:47.277Z,23.90
2022-12-05T09:06:18.077Z,24.90
2022-12-05T09:08:45.009Z,23.80
2022-12-05T09:11:14.511Z,23.90
2022-12-05T09:13:42.273Z,23.90
2022-12-05T09:16:14.917Z,22.70
2022-12-05T09:18:42.480Z,21.30
2022-12-05T09:21:15.244Z,22.50
2022-12-05T09:23:42.720Z,22.30
2022-12-05T09:26:12.383Z,24.60
2022-12-05T09:28:40.066Z,24.40
2022-12-05T09:31:12.553Z,23.50
2022-12-05T09:33:39.728Z,23.80
2022-12-05T09:36:12.512Z,24.90
2022-12-05T09:38:39.788Z,23.20
2022-12-05T09:42:02.590Z,22.50
2022-12-05T09:45:03.285Z,21.00
2022-12-05T09:47:55.751Z,21.90
2022-12-05T09:50:29.776Z,22.80
2022-12-05T09:53:08.505Z,24.30
2022-12-05T09:55:41.279Z,26.80
2022-12-05T09:58:39.355Z,28.80
2022-12-05T10:01:31.690Z,26.90
2022-12-05T10:04:06.860Z,28.50
2022-12-05T10:06:45.723Z,26.80
2022-12-05T10:09:31.105Z,29.60
2022-12-05T10:12:24.761Z,30.20
2022-12-05T10:15:00.682Z,27.70
2022-12-05T10:20:11.392Z,27.90
2022-12-05T10:22:57.785Z,27.10
2022-12-05T10:25:27.135Z,25.50
2022-12-05T10:28:00.500Z,29.30
2022-12-05T10:30:31.866Z,31.40
2022-12-05T10:33:09.545Z,37.00
2022-12-05T10:35:39.333Z,31.00
2022-12-05T10:38:20.119Z,30.10
2022-12-05T10:40:52.098Z,27.50
2022-12-05T10:43:26.358Z,29.20
2022-12-05T10:45:53.101Z,22.60
2022-12-05T10:48:21.626Z,22.20
2022-12-05T10:50:53.421Z,23.90
2022-12-05T10:53:28.347Z,21.50
2022-12-05T10:56:28.652Z,22.30
2022-12-05T10:58:55.437Z,22.70
2022-12-05T11:01:23.116Z,23.10
2022-12-05T11:04:16.722Z,22.60
2022-12-05T11:06:53.813Z,24.50
2022-12-05T11:09:24.737Z,23.70
2022-12-05T11:12:15.209Z,28.00
2022-12-05T11:14:58.652Z,27.50
2022-12-05T11:17:34.539Z,29.60
2022-12-05T11:20:21.980Z,40.30
2022-12-05T11:22:52.115Z,35.10
2022-12-05T11:25:27.879Z,28.70
2022-12-05T11:28:22.556Z,30.20
2022-12-05T11:31:16.128Z,31.60
2022-12-05T11:33:43.119Z,29.50
2022-12-05T11:36:22.874Z,26.20
2022-12-05T11:38:50.718Z,25.70
2022-12-05T11:41:17.456Z,23.20
2022-12-05T11:44:05.907Z,24.80
2022-12-05T11:46:41.835Z,29.20
2022-12-05T11:49:37.214Z,29.50
2022-12-05T11:52:21.843Z,28.30
2022-12-05T11:55:19.537Z,35.10
2022-12-05T11:58:05.206Z,32.60
2022-12-05T12:00:57.994Z,32.10
2022-12-05T12:03:54.016Z,34.20
2022-12-05T12:06:44.297Z,38.90
2022-12-05T12:09:43.674Z,34.10
2022-12-05T12:12:25.006Z,31.80
2022-12-05T12:14:54.549Z,34.40
2022-12-05T12:18:02.260Z,31.20
2022-12-05T12:20:34.590Z,33.10
2022-12-05T12:23:30.524Z,36.50
2022-12-05T12:26:29.851Z,36.30
2022-12-05T12:29:18.160Z,34.10
2022-12-05T12:31:44.967Z,36.00
2022-12-05T12:34:17.518Z,37.10
2022-12-05T12:37:01.708Z,38.90
2022-12-05T12:39:41.588Z,37.00
2022-12-05T12:42:33.675Z,35.40
2022-12-05T12:45:23.100Z,39.30
2022-12-05T12:48:12.142Z,42.80
2022-12-05T12:50:44.216Z,35.90
2022-12-05T12:53:35.908Z,35.00
2022-12-05T12:56:03.328Z,36.20
2022-12-05T12:59:02.645Z,37.60
2022-12-05T13:01:54.397Z,35.40
2022-12-05T13:04:56.946Z,38.20
2022-12-05T13:07:50.903Z,42.80
2022-12-05T13:10:33.482Z,39.90
2022-12-05T13:13:03.297Z,40.40
2022-12-05T13:15:44.357Z,35.50
2022-12-05T13:18:17.248Z,40.40
2022-12-05T13:20:48.760Z,39.40
2022-12-05T13:23:18.914Z,39.30
2022-12-05T13:25:47.042Z,36.90
2022-12-05T13:28:41.816Z,39.20
2022-12-05T13:31:13.504Z,37.20
2022-12-05T13:33:44.210Z,37.20
2022-12-05T13:36:36.654Z,42.90
2022-12-05T13:39:26.203Z,36.80
2022-12-05T13:42:14.616Z,41.30
2022-12-05T13:44:52.581Z,35.00
2022-12-05T13:47:29.519Z,38.00
2022-12-05T13:50:25.754Z,41.20
2022-12-05T13:53:03.610Z,37.30
2022-12-05T13:55:53.601Z,41.90
2022-12-05T14:00:47.379Z,35.80
2022-12-05T14:03:37.394Z,36.00
2022-12-05T14:06:06.417Z,37.50
2022-12-05T14:08:39.270Z,38.20
2022-12-05T14:11:09.747Z,36.80
2022-12-05T14:13:41.672Z,36.10
2022-12-05T14:16:23.973Z,37.00
2022-12-05T14:19:12.904Z,38.80
2022-12-05T14:21:50.770Z,36.80
2022-12-05T14:24:32.469Z,38.00
2022-12-05T14:27:07.561Z,42.00
2022-12-05T14:29:34.220Z,44.00
2022-12-05T14:32:30.668Z,39.90
2022-12-05T14:35:00.221Z,40.30
2022-12-05T14:37:34.990Z,38.30
2022-12-05T14:40:17.224Z,35.80
2022-12-05T14:42:54.051Z,38.50
2022-12-05T14:45:31.921Z,37.60
2022-12-05T14:48:26.232Z,38.30
2022-12-05T14:50:55.423Z,42.30
2022-12-05T14:53:42.469Z,84.50
2022-12-05T14:56:22.817Z,46.70
2022-12-05T14:58:57.689Z,39.10
2022-12-05T15:01:31.942Z,39.40
2022-12-05T15:04:23.355Z,37.90
2022-12-05T15:07:02.407Z,40.20
2022-12-05T15:09:39.940Z,40.30
2022-12-05T15:12:15.524Z,39.90
2022-12-05T15:15:08.685Z,40.80
2022-12-05T15:17:42.695Z,39.70
2022-12-05T15:20:24.188Z,41.30
2022-12-05T15:22:51.079Z,39.00
2022-12-05T15:25:32.259Z,36.30
2022-12-05T15:28:16.965Z,37.70
2022-12-05T15:30:55.103Z,33.80
2022-12-05T15:33:26.281Z,35.90
2022-12-05T15:35:55.193Z,35.50
2022-12-05T15:38:28.913Z,36.80
2022-12-05T15:40:55.614Z,35.60
2022-12-05T15:43:31.264Z,38.40
2022-12-05T15:46:23.446Z,38.10
2022-12-05T15:48:52.133Z,35.60
2022-12-05T15:51:23.553Z,36.20
2022-12-05T15:54:00.210Z,35.70
2022-12-05T15:56:37.133Z,38.30
2022-12-05T15:59:32.889Z,36.50
2022-12-05T16:02:13.298Z,45.00
2022-12-05T16:04:50.291Z,38.80
2022-12-05T16:07:18.349Z,38.00
2022-12-05T16:09:45.938Z,45.60
2022-12-05T16:12:39.992Z,51.40
2022-12-05T16:15:22.189Z,44.40
2022-12-05T16:17:55.564Z,44.30
2022-12-05T16:20:24.170Z,51.30
2022-12-05T16:22:54.622Z,51.80
2022-12-05T16:25:27.688Z,44.00
2022-12-05T16:28:18.758Z,43.20
2022-12-05T16:30:59.832Z,43.20
2022-12-05T16:33:29.802Z,42.50
2022-12-05T16:36:08.669Z,44.90
2022-12-05T16:38:36.977Z,48.70
2022-12-05T16:41:06.503Z,46.00
2022-12-05T16:43:33.286Z,45.40
2022-12-05T16:46:15.299Z,42.20
2022-12-05T16:48:49.084Z,42.20
2022-12-05T16:51:21.389Z,40.30
2022-12-05T16:53:52.201Z,40.00
2022-12-05T16:56:31.769Z,44.60
2022-12-05T16:59:05.336Z,42.80
2022-12-05T17:01:38.451Z,39.90
2022-12-05T17:04:09.003Z,42.90
2022-12-05T17:06:35.770Z,44.30
2022-12-05T17:09:02.911Z,42.00
2022-12-05T17:11:33.529Z,41.40
2022-12-05T17:14:21.605Z,43.50
2022-12-05T17:16:48.381Z,45.10
2022-12-05T17:19:15.202Z,45.80
2022-12-05T17:21:42.532Z,45.60
2022-12-05T17:24:17.562Z,45.20
2022-12-05T17:26:46.780Z,42.40
2022-12-05T17:29:13.556Z,54.10
2022-12-05T17:31:40.396Z,54.70
2022-12-05T17:34:15.708Z,51.90
2022-12-05T17:36:45.874Z,45.50
2022-12-05T17:39:12.768Z,45.70
2022-12-05T17:41:39.764Z,46.40
2022-12-05T17:44:09.046Z,45.80
2022-12-05T17:46:35.769Z,46.70
2022-12-05T17:49:02.548Z,45.40
2022-12-05T17:51:30.082Z,43.60
2022-12-05T17:53:56.809Z,46.70
2022-12-05T17:56:23.766Z,54.60
2022-12-05T17:58:50.562Z,48.20
2022-12-05T18:01:21.156Z,40.80
2022-12-05T18:03:48.406Z,41.80
2022-12-05T18:06:16.488Z,76.60
2022-12-05T18:08:44.567Z,50.80
2022-12-05T18:11:13.788Z,50.20
2022-12-05T18:13:40.524Z,45.80
2022-12-05T18:16:07.849Z,49.40
2022-12-05T18:18:34.857Z,54.70
2022-12-05T18:21:10.558Z,51.00
2022-12-05T18:23:38.771Z,40.00
2022-12-05T18:26:07.649Z,42.60
2022-12-05T18:28:39.304Z,50.30
2022-12-05T18:31:11.634Z,43.50
2022-12-05T18:33:39.077Z,41.90
2022-12-05T18:36:11.591Z,38.70
2022-12-05T18:38:38.608Z,41.40
2022-12-05T18:41:06.406Z,38.30
2022-12-05T18:43:33.684Z,38.40
2022-12-05T18:46:03.362Z,37.80
2022-12-05T18:48:42.565Z,36.90
2022-12-05T18:51:19.247Z,38.30
2022-12-05T18:53:51.924Z,40.00
2022-12-05T18:56:25.716Z,40.20
2022-12-05T18:59:01.396Z,40.90
2022-12-05T19:01:30.278Z,48.80
2022-12-05T19:03:58.471Z,44.60
2022-12-05T19:06:29.263Z,42.30
2022-12-05T19:09:02.292Z,45.30
2022-12-05T19:11:29.227Z,43.80
2022-12-05T19:14:01.573Z,43.10
2022-12-05T19:16:30.749Z,38.20
2022-12-05T19:19:00.348Z,39.60
2022-12-05T19:21:30.406Z,38.20
2022-12-05T19:23:57.200Z,41.20
2022-12-05T19:26:25.380Z,42.40
2022-12-05T19:28:52.246Z,38.40
2022-12-05T19:31:22.549Z,39.80
2022-12-05T19:33:52.350Z,38.80
2022-12-05T19:36:24.954Z,39.20
2022-12-05T19:38:53.332Z,40.60
2022-12-05T19:41:26.252Z,42.30
2022-12-05T19:43:54.720Z,41.00
2022-12-05T19:46:29.949Z,49.60
2022-12-05T19:48:58.974Z,64.30
2022-12-05T19:51:26.967Z,52.70
2022-12-05T19:53:53.797Z,46.90
2022-12-05T19:56:22.972Z,52.50
2022-12-05T19:58:51.567Z,72.20
2022-12-05T20:01:20.604Z,71.30
2022-12-05T20:03:49.952Z,56.30
2022-12-05T20:06:17.652Z,50.90
2022-12-05T20:08:46.642Z,43.40
2022-12-05T20:11:16.561Z,48.80
2022-12-05T20:13:47.087Z,45.70
2022-12-05T20:16:17.956Z,46.60
2022-12-05T20:18:44.986Z,46.90
2022-12-05T20:21:14.122Z,46.70
2022-12-05T20:23:41.373Z,46.60
2022-12-05T20:26:28.690Z,44.40
2022-12-05T20:29:00.215Z,45.90
2022-12-05T20:31:34.384Z,40.00
2022-12-05T20:34:01.730Z,40.30
2022-12-05T20:36:31.245Z,45.30
2022-12-05T20:39:06.678Z,43.90
2022-12-05T20:41:34.189Z,45.10
2022-12-05T20:44:04.304Z,44.40
2022-12-05T20:46:31.765Z,41.30
2022-12-05T20:48:59.151Z,41.90
2022-12-05T20:51:29.370Z,44.50
2022-12-05T20:53:58.153Z,45.60
2022-12-05T20:56:31.133Z,47.30
2022-12-05T20:59:00.583Z,43.60
2022-12-05T21:01:29.561Z,45.40
2022-12-05T21:03:56.630Z,41.80
2022-12-05T21:06:39.698Z,41.30
2022-12-05T21:09:15.332Z,42.70
2022-12-05T21:11:42.552Z,40.70
2022-12-05T21:14:10.513Z,40.90
2022-12-05T21:16:37.701Z,38.70
2022-12-05T21:19:06.557Z,41.10
2022-12-05T21:21:33.570Z,40.90
2022-12-05T21:24:02.536Z,40.20
2022-12-05T21:26:32.962Z,38.30
2022-12-05T21:29:04.577Z,40.30
2022-12-05T21:31:37.660Z,40.60
2022-12-05T21:34:08.321Z,39.40
2022-12-05T21:36:36.416Z,38.00
2022-12-05T21:39:05.581Z,38.40
2022-12-05T21:41:32.874Z,38.60
2022-12-05T21:44:00.936Z,39.50
2022-12-05T21:46:28.009Z,39.00
2022-12-05T21:48:55.110Z,38.10
2022-12-05T21:51:22.647Z,40.00
2022-12-05T21:53:50.075Z,40.20
2022-12-05T21:56:19.319Z,39.30
2022-12-05T21:58:46.896Z,43.80
2022-12-05T22:01:19.514Z,45.60
2022-12-05T22:03:47.065Z,42.80
2022-12-05T22:06:14.732Z,40.60
2022-12-05T22:08:42.491Z,44.70
2022-12-05T22:11:17.866Z,44.40
2022-12-05T22:13:45.323Z,47.40
2022-12-05T22:16:12.925Z,52.00
2022-12-05T22:18:40.421Z,49.90
2022-12-05T22:21:12.666Z,54.20
2022-12-05T22:23:39.502Z,55.00
2022-12-05T22:26:09.809Z,55.40
2022-12-05T22:28:37.171Z,56.30
2022-12-05T22:31:07.475Z,57.30
2022-12-05T22:33:38.246Z,55.80
2022-12-05T22:36:08.710Z,66.40
2022-12-05T22:38:38.124Z,62.90
2022-12-05T22:41:08.214Z,56.70
2022-12-05T22:43:37.142Z,60.30
2022-12-05T22:46:08.021Z,58.50
2022-12-05T22:48:35.228Z,58.30
2022-12-05T22:51:02.818Z,62.10
2022-12-05T22:53:30.163Z,61.50
2022-12-05T22:56:10.426Z,65.80
2022-12-05T22:58:38.130Z,68.10
2022-12-05T23:01:15.418Z,65.90
2022-12-05T23:03:43.924Z,66.90
2022-12-05T23:06:13.356Z,69.30
2022-12-05T23:08:43.144Z,66.10
2022-12-05T23:11:10.930Z,70.60
2022-12-05T23:13:38.736Z,64.20
2022-12-05T23:16:14.023Z,69.80
2022-12-05T23:18:48.032Z,70.90
2022-12-05T23:21:33.904Z,74.20
2022-12-05T23:24:03.054Z,69.80
2022-12-05T23:26:33.132Z,64.40
2022-12-05T23:28:59.915Z,69.50
2022-12-05T23:31:26.792Z,62.90
2022-12-05T23:33:54.538Z,70.40
2022-12-05T23:36:23.919Z,63.40
2022-12-05T23:38:50.621Z,64.10
2022-12-05T23:41:20.858Z,69.30
2022-12-05T23:43:49.994Z,71.20
2022-12-05T23:46:20.335Z,62.90
2022-12-05T23:48:47.894Z,61.30
2022-12-05T23:51:17.957Z,67.40
2022-12-05T23:53:46.325Z,59.80
2022-12-05T23:56:17.029Z,64.50
2022-12-05T23:58:44.355Z,67.20
